createdAt,value
2019-01-25T00:01:51.371Z,28.83
2019-01-25T00:04:19.897Z,25.80
2019-01-25T00:06:48.429Z,28.03
2019-01-25T00:09:17.005Z,24.10
2019-01-25T00:11:45.536Z,23.10
2019-01-25T00:14:14.124Z,24.83
2019-01-25T00:16:42.684Z,29.23
2019-01-25T00:19:11.224Z,24.37
2019-01-25T00:21:41.345Z,24.47
2019-01-25T00:24:09.873Z,24.90
2019-01-25T00:26:38.672Z,24.83
2019-01-25T00:29:07.220Z,21.57
2019-01-25T00:31:35.764Z,27.07
2019-01-25T00:34:04.313Z,24.00
2019-01-25T00:36:32.856Z,26.07
2019-01-25T00:39:01.413Z,29.60
2019-01-25T00:41:29.945Z,25.60
2019-01-25T00:43:58.508Z,25.73
2019-01-25T00:46:27.039Z,24.67
2019-01-25T00:48:56.588Z,27.83
2019-01-25T00:51:25.321Z,22.93
2019-01-25T00:53:53.845Z,26.90
2019-01-25T00:56:22.397Z,27.83
2019-01-25T00:58:50.921Z,22.50
2019-01-25T01:01:19.453Z,28.13
2019-01-25T01:03:48.012Z,26.60
2019-01-25T01:06:16.531Z,23.40
2019-01-25T01:08:45.082Z,28.53
2019-01-25T01:11:13.630Z,25.90
2019-01-25T01:13:42.268Z,31.20
2019-01-25T01:16:11.547Z,28.43
2019-01-25T01:18:40.229Z,24.90
2019-01-25T01:21:08.785Z,26.27
2019-01-25T01:23:37.342Z,24.10
2019-01-25T01:26:05.876Z,24.67
2019-01-25T01:28:34.433Z,26.97
2019-01-25T01:31:02.965Z,24.27
2019-01-25T01:33:31.537Z,24.10
2019-01-25T01:36:00.057Z,25.17
2019-01-25T01:38:28.621Z,27.03
2019-01-25T01:40:57.172Z,25.50
2019-01-25T01:43:25.710Z,25.63
2019-01-25T01:45:54.276Z,21.93
2019-01-25T01:48:22.805Z,24.17
2019-01-25T01:50:51.333Z,25.20
2019-01-25T01:53:19.876Z,28.33
2019-01-25T01:55:49.181Z,24.57
2019-01-25T01:58:17.749Z,28.50
2019-01-25T02:00:46.359Z,28.70
2019-01-25T02:03:14.897Z,25.77
2019-01-25T02:05:43.419Z,24.07
2019-01-25T02:08:11.981Z,27.77
2019-01-25T02:10:40.501Z,26.50
2019-01-25T02:13:09.129Z,23.83
2019-01-25T02:15:37.680Z,29.30
2019-01-25T02:18:06.220Z,28.97
2019-01-25T02:20:34.805Z,24.33
2019-01-25T02:23:03.361Z,23.60
2019-01-25T02:25:33.304Z,24.17
2019-01-25T02:28:01.851Z,25.60
2019-01-25T02:30:30.390Z,24.70
2019-01-25T02:32:58.921Z,22.87
2019-01-25T02:35:27.689Z,23.50
2019-01-25T02:37:56.458Z,23.13
2019-01-25T02:40:25.749Z,23.50
2019-01-25T02:42:54.978Z,21.57
2019-01-25T02:45:24.866Z,28.47
2019-01-25T02:47:53.611Z,24.40
2019-01-25T02:50:22.461Z,24.17
2019-01-25T02:52:51.254Z,23.73
2019-01-25T02:55:20.605Z,25.50
2019-01-25T02:57:49.344Z,25.30
2019-01-25T03:00:22.007Z,24.37
2019-01-25T03:02:50.893Z,25.33
2019-01-25T03:05:19.978Z,25.37
2019-01-25T03:07:49.307Z,28.07
2019-01-25T03:10:18.169Z,26.33
2019-01-25T03:12:46.989Z,25.00
2019-01-25T03:15:17.169Z,27.77
2019-01-25T03:17:45.946Z,20.27
2019-01-25T03:20:14.697Z,43.13
2019-01-25T03:22:43.474Z,25.13
2019-01-25T03:25:13.965Z,27.83
2019-01-25T03:27:42.703Z,23.00
2019-01-25T03:30:12.373Z,28.77
2019-01-25T03:32:41.210Z,24.57
2019-01-25T03:35:10.722Z,21.43
2019-01-25T03:37:39.539Z,29.97
2019-01-25T03:40:09.036Z,26.53
2019-01-25T03:42:37.871Z,27.57
2019-01-25T03:45:06.840Z,25.27
2019-01-25T03:47:35.654Z,27.70
2019-01-25T03:50:05.812Z,27.40
2019-01-25T03:52:34.596Z,25.07
2019-01-25T03:55:03.362Z,26.93
2019-01-25T03:57:32.105Z,22.17
2019-01-25T04:00:00.891Z,25.03
2019-01-25T04:02:29.659Z,23.53
2019-01-25T04:04:58.398Z,25.37
2019-01-25T04:07:27.162Z,28.17
2019-01-25T04:09:55.903Z,27.80
2019-01-25T04:12:24.690Z,27.33
2019-01-25T04:14:53.465Z,29.07
2019-01-25T04:17:22.267Z,34.00
2019-01-25T04:19:51.299Z,25.07
2019-01-25T04:22:20.134Z,26.03
2019-01-25T04:24:48.906Z,29.80
2019-01-25T04:27:17.670Z,22.87
2019-01-25T04:29:46.449Z,24.90
2019-01-25T04:32:15.196Z,25.10
2019-01-25T04:34:44.278Z,25.53
2019-01-25T04:37:13.086Z,25.27
2019-01-25T04:39:41.827Z,23.80
2019-01-25T04:42:10.633Z,27.20
2019-01-25T04:44:39.421Z,32.23
2019-01-25T04:47:08.161Z,26.73
2019-01-25T04:49:36.947Z,26.83
2019-01-25T04:52:11.969Z,27.17
2019-01-25T04:54:40.742Z,26.30
2019-01-25T04:57:09.530Z,27.53
2019-01-25T04:59:38.330Z,34.47
2019-01-25T05:02:07.138Z,33.47
2019-01-25T05:04:36.545Z,30.43
2019-01-25T05:07:05.550Z,29.87
2019-01-25T05:09:37.895Z,25.47
2019-01-25T05:12:06.818Z,25.63
2019-01-25T05:14:35.778Z,22.53
2019-01-25T05:17:04.521Z,24.90
2019-01-25T05:19:39.726Z,28.87
2019-01-25T05:22:08.576Z,22.83
2019-01-25T05:24:37.386Z,26.13
2019-01-25T05:27:06.174Z,25.70
2019-01-25T05:30:03.076Z,29.53
2019-01-25T05:32:32.172Z,24.87
2019-01-25T05:35:00.925Z,30.30
2019-01-25T05:37:29.667Z,24.60
2019-01-25T05:39:58.823Z,25.77
2019-01-25T05:42:27.645Z,31.53
2019-01-25T05:44:56.439Z,30.13
2019-01-25T05:47:25.209Z,28.77
2019-01-25T05:49:54.059Z,25.60
2019-01-25T05:52:22.902Z,27.70
2019-01-25T05:54:51.668Z,30.00
2019-01-25T05:57:20.487Z,28.83
2019-01-25T05:59:49.262Z,26.83
2019-01-25T06:02:18.034Z,24.60
2019-01-25T06:04:46.783Z,27.50
2019-01-25T06:07:15.541Z,27.00
2019-01-25T06:09:44.362Z,29.07
2019-01-25T06:12:13.207Z,25.57
2019-01-25T06:14:41.974Z,23.03
2019-01-25T06:17:10.740Z,28.00
2019-01-25T06:19:39.524Z,25.63
2019-01-25T06:22:08.285Z,22.43
2019-01-25T06:24:37.089Z,28.23
2019-01-25T06:27:06.197Z,25.83
2019-01-25T06:29:34.934Z,28.93
2019-01-25T06:32:04.587Z,27.27
2019-01-25T06:34:33.422Z,27.00
2019-01-25T06:37:02.234Z,23.23
2019-01-25T06:39:31.040Z,24.97
2019-01-25T06:41:59.800Z,25.23
2019-01-25T06:44:28.630Z,26.37
2019-01-25T06:46:57.398Z,26.40
2019-01-25T06:49:26.162Z,33.27
2019-01-25T06:51:54.990Z,29.70
2019-01-25T06:54:23.766Z,28.90
2019-01-25T06:56:52.529Z,28.93
2019-01-25T06:59:24.402Z,26.07
2019-01-25T07:02:04.372Z,29.53
2019-01-25T07:04:33.235Z,29.03
2019-01-25T07:07:03.126Z,24.00
2019-01-25T07:09:32.934Z,27.40
2019-01-25T07:12:02.005Z,25.73
2019-01-25T07:14:30.771Z,23.70
2019-01-25T07:16:59.533Z,30.17
2019-01-25T07:19:28.317Z,22.60
2019-01-25T07:21:57.093Z,31.57
2019-01-25T07:24:25.866Z,36.63
2019-01-25T07:26:54.662Z,30.17
2019-01-25T07:29:23.501Z,31.63
2019-01-25T07:31:52.252Z,28.03
2019-01-25T07:34:21.019Z,32.97
2019-01-25T07:36:49.758Z,28.40
2019-01-25T07:39:21.523Z,34.27
2019-01-25T07:41:50.383Z,29.87
2019-01-25T07:44:19.205Z,36.40
2019-01-25T07:46:47.987Z,30.17
2019-01-25T07:49:16.982Z,34.57
2019-01-25T07:51:45.877Z,33.50
2019-01-25T07:54:14.678Z,32.83
2019-01-25T07:56:43.474Z,33.27
2019-01-25T07:59:12.383Z,39.37
2019-01-25T08:01:41.172Z,36.17
2019-01-25T08:04:09.987Z,33.37
2019-01-25T08:06:38.845Z,32.27
2019-01-25T08:09:08.691Z,31.90
2019-01-25T08:11:37.493Z,34.30
2019-01-25T08:14:06.282Z,31.40
2019-01-25T08:16:35.123Z,34.80
2019-01-25T08:19:04.173Z,35.63
2019-01-25T08:21:32.979Z,31.80
2019-01-25T08:24:01.818Z,30.37
2019-01-25T08:26:30.722Z,31.40
2019-01-25T08:28:59.466Z,31.43
2019-01-25T08:31:28.261Z,34.03
2019-01-25T08:33:57.011Z,27.53
2019-01-25T08:36:26.494Z,29.67
2019-01-25T08:38:55.302Z,34.90
2019-01-25T08:41:24.082Z,30.57
2019-01-25T08:43:52.898Z,31.90
2019-01-25T08:46:21.669Z,29.63
2019-01-25T08:48:50.504Z,31.63
2019-01-25T08:51:19.330Z,26.30
2019-01-25T08:53:48.337Z,29.63
2019-01-25T08:56:17.311Z,37.50
2019-01-25T08:58:46.057Z,25.87
2019-01-25T09:01:14.907Z,31.10
2019-01-25T09:03:44.028Z,27.13
2019-01-25T09:06:12.842Z,26.83
2019-01-25T09:08:41.586Z,29.80
2019-01-25T09:11:10.453Z,30.43
2019-01-25T09:13:39.267Z,24.80
2019-01-25T09:16:08.143Z,29.50
2019-01-25T09:18:36.881Z,26.63
2019-01-25T09:21:05.670Z,29.27
2019-01-25T09:23:34.419Z,29.03
2019-01-25T09:26:03.202Z,27.37
2019-01-25T09:28:31.977Z,29.73
2019-01-25T09:31:00.783Z,30.17
2019-01-25T09:33:29.625Z,27.43
2019-01-25T09:35:58.411Z,29.73
2019-01-25T09:38:27.168Z,30.90
2019-01-25T09:40:55.934Z,27.23
2019-01-25T09:43:24.702Z,24.53
2019-01-25T09:45:53.473Z,29.13
2019-01-25T09:48:22.302Z,30.23
2019-01-25T09:50:52.781Z,31.93
2019-01-25T09:53:21.922Z,27.33
2019-01-25T09:55:50.693Z,30.83
2019-01-25T09:58:19.530Z,29.53
2019-01-25T10:00:50.264Z,30.20
2019-01-25T10:03:19.051Z,29.30
2019-01-25T10:05:47.865Z,31.87
2019-01-25T10:08:16.615Z,30.30
2019-01-25T10:10:45.401Z,29.93
2019-01-25T10:13:14.270Z,28.07
2019-01-25T10:15:43.167Z,29.77
2019-01-25T10:18:11.974Z,29.87
2019-01-25T10:20:40.861Z,29.30
2019-01-25T10:23:09.650Z,29.07
2019-01-25T10:25:38.489Z,29.07
2019-01-25T10:28:07.275Z,28.50
2019-01-25T10:30:36.030Z,28.47
2019-01-25T10:33:04.832Z,33.30
2019-01-25T10:35:33.659Z,26.17
2019-01-25T10:38:02.466Z,27.27
2019-01-25T10:40:31.245Z,27.47
2019-01-25T10:43:00.131Z,28.80
2019-01-25T10:45:30.174Z,28.73
2019-01-25T10:47:59.007Z,24.77
2019-01-25T10:50:28.012Z,24.73
2019-01-25T10:52:56.851Z,24.67
2019-01-25T10:55:25.630Z,26.53
2019-01-25T10:57:54.543Z,26.00
2019-01-25T11:00:23.509Z,24.67
2019-01-25T11:02:58.061Z,27.10
2019-01-25T11:05:23.372Z,22.50
2019-01-25T11:07:52.258Z,20.40
2019-01-25T11:10:21.104Z,24.83
2019-01-25T11:12:49.867Z,23.27
2019-01-25T11:15:19.776Z,26.40
2019-01-25T11:17:48.649Z,26.83
2019-01-25T11:20:20.877Z,23.67
2019-01-25T11:22:49.667Z,21.50
2019-01-25T11:25:26.114Z,24.83
2019-01-25T11:27:54.915Z,21.17
2019-01-25T11:30:23.977Z,24.30
2019-01-25T11:32:54.014Z,24.40
2019-01-25T11:35:22.894Z,21.03
2019-01-25T11:37:51.845Z,27.43
2019-01-25T11:40:22.350Z,23.00
2019-01-25T11:42:51.172Z,17.90
2019-01-25T11:45:19.944Z,23.13
2019-01-25T11:47:48.722Z,15.13
2019-01-25T11:50:17.937Z,16.63
2019-01-25T11:52:46.743Z,22.53
2019-01-25T11:55:15.606Z,20.80
2019-01-25T11:57:44.363Z,20.90
2019-01-25T12:00:15.251Z,17.83
2019-01-25T12:02:44.058Z,22.50
2019-01-25T12:05:13.870Z,21.43
2019-01-25T12:07:42.781Z,18.30
2019-01-25T12:10:12.098Z,19.13
2019-01-25T12:12:40.930Z,19.97
2019-01-25T12:15:11.546Z,17.53
2019-01-25T12:17:40.343Z,17.90
2019-01-25T12:20:10.886Z,19.10
2019-01-25T12:22:39.735Z,19.77
2019-01-25T12:25:09.158Z,18.37
2019-01-25T12:27:38.018Z,19.03
2019-01-25T12:30:09.239Z,19.83
2019-01-25T12:32:38.054Z,16.37
2019-01-25T12:35:07.971Z,17.00
2019-01-25T12:37:36.706Z,18.13
2019-01-25T12:40:06.484Z,17.87
2019-01-25T12:42:35.457Z,22.10
2019-01-25T12:45:04.877Z,20.93
2019-01-25T12:47:33.669Z,19.03
2019-01-25T12:50:02.738Z,17.77
2019-01-25T12:52:31.517Z,16.40
2019-01-25T12:55:00.262Z,16.13
2019-01-25T12:57:29.046Z,16.97
2019-01-25T12:59:57.832Z,17.93
2019-01-25T13:02:26.618Z,17.80
2019-01-25T13:04:55.427Z,18.00
2019-01-25T13:07:24.215Z,16.43
2019-01-25T13:09:53.027Z,17.53
2019-01-25T13:12:25.211Z,18.83
2019-01-25T13:14:52.269Z,21.53
2019-01-25T13:17:21.063Z,18.23
2019-01-25T13:19:49.929Z,17.67
2019-01-25T13:22:18.822Z,22.03
2019-01-25T13:24:47.634Z,20.63
2019-01-25T13:27:16.447Z,20.23
2019-01-25T13:29:45.300Z,21.17
2019-01-25T13:32:14.668Z,20.93
2019-01-25T13:34:44.634Z,22.00
2019-01-25T13:37:13.450Z,22.03
2019-01-25T13:39:42.311Z,19.67
2019-01-25T13:42:11.182Z,20.70
2019-01-25T13:44:40.002Z,24.60
2019-01-25T13:47:08.880Z,19.87
2019-01-25T13:49:37.691Z,21.03
2019-01-25T13:52:06.445Z,21.43
2019-01-25T13:54:54.347Z,26.00
2019-01-25T13:57:23.229Z,21.97
2019-01-25T13:59:51.973Z,22.03
2019-01-25T14:02:20.781Z,28.40
2019-01-25T14:04:49.625Z,23.93
2019-01-25T14:07:21.041Z,24.97
2019-01-25T14:09:49.095Z,23.73
2019-01-25T14:12:17.940Z,23.10
2019-01-25T14:14:46.750Z,22.30
2019-01-25T14:17:15.514Z,22.70
2019-01-25T14:19:44.281Z,26.03
2019-01-25T14:22:13.032Z,30.50
2019-01-25T14:24:41.843Z,24.80
2019-01-25T14:27:10.585Z,25.70
2019-01-25T14:29:39.377Z,24.47
2019-01-25T14:32:08.243Z,24.73
2019-01-25T14:34:37.067Z,28.27
2019-01-25T14:37:05.939Z,24.73
2019-01-25T14:39:34.727Z,20.40
2019-01-25T14:42:03.573Z,29.10
2019-01-25T14:44:32.324Z,26.40
2019-01-25T14:47:01.175Z,28.90
2019-01-25T14:49:29.959Z,26.87
2019-01-25T14:51:59.006Z,27.43
2019-01-25T14:54:27.770Z,23.70
2019-01-25T14:56:56.519Z,22.77
2019-01-25T14:59:25.431Z,22.70
2019-01-25T15:01:54.210Z,26.00
2019-01-25T15:04:23.367Z,31.23
2019-01-25T15:06:52.113Z,25.30
2019-01-25T15:09:20.885Z,30.20
2019-01-25T15:11:49.700Z,27.80
2019-01-25T15:14:18.476Z,25.93
2019-01-25T15:16:47.214Z,28.13
2019-01-25T15:19:16.031Z,26.93
2019-01-25T15:21:44.823Z,27.90
2019-01-25T15:24:13.592Z,24.80
2019-01-25T15:26:42.368Z,29.80
2019-01-25T15:29:11.126Z,29.53
2019-01-25T15:31:40.007Z,26.30
2019-01-25T15:34:08.750Z,26.73
2019-01-25T15:36:37.518Z,26.60
2019-01-25T15:39:07.599Z,26.37
2019-01-25T15:41:36.354Z,29.03
2019-01-25T15:44:10.005Z,31.03
2019-01-25T15:46:35.606Z,30.90
2019-01-25T15:49:04.613Z,29.40
2019-01-25T15:51:33.396Z,26.90
2019-01-25T15:54:02.196Z,25.40
2019-01-25T15:56:30.943Z,26.23
2019-01-25T15:58:59.705Z,28.80
2019-01-25T16:01:28.478Z,30.73
2019-01-25T16:03:57.530Z,28.97
2019-01-25T16:06:26.341Z,30.20
2019-01-25T16:08:55.126Z,27.10
2019-01-25T16:11:23.925Z,31.17
2019-01-25T16:13:52.799Z,28.73
2019-01-25T16:16:21.541Z,26.60
2019-01-25T16:18:50.309Z,27.10
2019-01-25T16:21:19.097Z,28.87
2019-01-25T16:23:48.198Z,31.73
2019-01-25T16:26:16.977Z,27.30
2019-01-25T16:28:45.803Z,33.73
2019-01-25T16:31:14.593Z,29.93
2019-01-25T16:33:43.342Z,29.73
2019-01-25T16:36:12.101Z,24.13
2019-01-25T16:38:40.888Z,26.50
2019-01-25T16:41:09.666Z,27.10
2019-01-25T16:43:38.551Z,29.03
2019-01-25T16:46:07.320Z,27.13
2019-01-25T16:48:36.074Z,26.47
2019-01-25T16:51:04.987Z,30.13
2019-01-25T16:53:33.756Z,26.20
2019-01-25T16:56:02.636Z,31.70
2019-01-25T16:58:31.445Z,26.93
2019-01-25T17:01:00.238Z,29.70
2019-01-25T17:03:29.084Z,29.00
2019-01-25T17:05:57.970Z,28.60
2019-01-25T17:08:26.745Z,30.23
2019-01-25T17:10:55.515Z,26.73
2019-01-25T17:13:24.275Z,28.43
2019-01-25T17:15:55.228Z,29.67
2019-01-25T17:18:23.572Z,28.43
2019-01-25T17:20:52.309Z,29.53
2019-01-25T17:23:21.154Z,32.27
2019-01-25T17:25:50.014Z,28.80
2019-01-25T17:28:18.758Z,27.93
2019-01-25T17:30:47.622Z,33.10
2019-01-25T17:33:16.510Z,27.73
2019-01-25T17:35:45.258Z,36.87
2019-01-25T17:38:14.022Z,32.27
2019-01-25T17:40:46.664Z,30.83
2019-01-25T17:43:14.987Z,28.73
2019-01-25T17:45:43.771Z,28.93
2019-01-25T17:48:12.551Z,29.93
2019-01-25T17:50:41.410Z,32.90
2019-01-25T17:53:10.276Z,29.13
2019-01-25T17:55:39.115Z,31.20
2019-01-25T17:58:08.468Z,30.27
2019-01-25T18:00:53.297Z,31.00
2019-01-25T18:03:22.397Z,27.93
2019-01-25T18:05:51.253Z,29.67
2019-01-25T18:08:19.998Z,28.13
2019-01-25T18:10:48.775Z,26.47
2019-01-25T18:13:17.534Z,28.47
2019-01-25T18:15:46.733Z,30.73
2019-01-25T18:18:15.551Z,29.90
2019-01-25T18:20:44.348Z,35.27
2019-01-25T18:23:13.494Z,32.97
2019-01-25T18:25:52.714Z,30.27
2019-01-25T18:28:29.420Z,33.73
2019-01-25T18:30:59.782Z,33.07
2019-01-25T18:33:28.526Z,30.77
2019-01-25T18:35:57.326Z,32.50
2019-01-25T18:38:26.077Z,28.57
2019-01-25T18:40:55.020Z,29.00
2019-01-25T18:43:23.754Z,32.07
2019-01-25T18:45:52.490Z,32.63
2019-01-25T18:48:21.266Z,30.50
2019-01-25T18:50:50.163Z,32.83
2019-01-25T18:53:18.955Z,30.60
2019-01-25T18:55:47.726Z,31.90
2019-01-25T18:58:16.581Z,32.13
2019-01-25T19:00:45.586Z,33.27
2019-01-25T19:03:14.332Z,32.60
2019-01-25T19:05:43.072Z,29.10
2019-01-25T19:08:11.841Z,40.53
2019-01-25T19:10:40.618Z,34.10
2019-01-25T19:13:09.398Z,30.93
2019-01-25T19:15:38.183Z,31.30
2019-01-25T19:18:06.971Z,32.57
2019-01-25T19:20:35.773Z,29.77
2019-01-25T19:23:04.607Z,30.93
2019-01-25T19:25:34.886Z,35.03
2019-01-25T19:28:03.733Z,31.77
2019-01-25T19:30:34.334Z,34.40
2019-01-25T19:33:03.352Z,29.77
2019-01-25T19:35:36.718Z,28.37
2019-01-25T19:38:06.118Z,31.40
2019-01-25T19:40:34.975Z,34.60
2019-01-25T19:43:04.142Z,33.87
2019-01-25T19:45:32.967Z,33.53
2019-01-25T19:48:01.754Z,35.37
2019-01-25T19:50:30.707Z,31.70
2019-01-25T19:52:59.654Z,36.43
2019-01-25T19:55:28.433Z,31.80
2019-01-25T19:57:57.590Z,29.80
2019-01-25T20:00:27.738Z,30.43
2019-01-25T20:02:56.546Z,28.83
2019-01-25T20:05:26.123Z,27.13
2019-01-25T20:07:55.007Z,26.10
2019-01-25T20:10:23.990Z,28.27
2019-01-25T20:12:53.241Z,30.40
2019-01-25T20:15:22.001Z,31.07
2019-01-25T20:17:50.877Z,30.30
2019-01-25T20:20:20.910Z,25.10
2019-01-25T20:22:49.687Z,29.30
2019-01-25T20:25:19.783Z,23.57
2019-01-25T20:27:48.942Z,23.93
2019-01-25T20:30:22.234Z,21.77
2019-01-25T20:32:51.059Z,21.83
2019-01-25T20:35:20.682Z,25.03
2019-01-25T20:37:49.560Z,24.10
2019-01-25T20:40:18.640Z,22.37
2019-01-25T20:42:49.085Z,26.67
2019-01-25T20:45:19.264Z,24.33
2019-01-25T20:47:48.010Z,25.97
2019-01-25T20:50:18.053Z,27.60
2019-01-25T20:52:46.797Z,21.90
2019-01-25T20:55:16.226Z,30.53
2019-01-25T20:57:44.974Z,24.87
2019-01-25T21:00:24.067Z,23.80
2019-01-25T21:02:52.901Z,24.60
2019-01-25T21:05:21.725Z,24.30
2019-01-25T21:07:50.555Z,25.00
2019-01-25T21:10:19.902Z,24.37
2019-01-25T21:12:48.711Z,28.40
2019-01-25T21:15:18.202Z,21.00
2019-01-25T21:17:47.019Z,22.00
2019-01-25T21:20:17.273Z,20.47
2019-01-25T21:22:46.042Z,19.57
2019-01-25T21:25:14.791Z,20.07
2019-01-25T21:27:43.656Z,20.23
2019-01-25T21:30:14.270Z,22.27
2019-01-25T21:32:43.062Z,18.60
2019-01-25T21:35:11.922Z,19.87
2019-01-25T21:37:40.806Z,19.73
2019-01-25T21:40:11.166Z,19.97
2019-01-25T21:42:39.951Z,21.90
2019-01-25T21:45:10.266Z,24.97
2019-01-25T21:47:39.038Z,15.63
2019-01-25T21:50:08.913Z,20.97
2019-01-25T21:52:37.971Z,25.00
2019-01-25T21:55:07.654Z,21.57
2019-01-25T21:57:36.442Z,19.27
2019-01-25T22:00:07.062Z,18.53
2019-01-25T22:02:36.950Z,18.83
2019-01-25T22:05:06.149Z,19.17
2019-01-25T22:07:34.884Z,22.83
2019-01-25T22:10:04.111Z,19.73
2019-01-25T22:12:32.941Z,18.90
2019-01-25T22:15:01.711Z,19.97
2019-01-25T22:17:30.562Z,20.00
2019-01-25T22:19:59.408Z,19.37
2019-01-25T22:22:28.214Z,19.07
2019-01-25T22:24:57.054Z,18.60
2019-01-25T22:27:25.866Z,17.83
2019-01-25T22:29:54.786Z,20.33
2019-01-25T22:32:25.946Z,19.60
2019-01-25T22:34:54.817Z,21.00
2019-01-25T22:37:23.658Z,18.63
2019-01-25T22:39:52.454Z,18.07
2019-01-25T22:42:21.258Z,18.77
2019-01-25T22:44:50.053Z,18.07
2019-01-25T22:47:20.468Z,21.27
2019-01-25T22:49:49.388Z,21.83
2019-01-25T22:52:18.185Z,20.33
2019-01-25T22:54:46.930Z,20.53
2019-01-25T22:57:15.830Z,21.07
2019-01-25T22:59:44.609Z,23.07
2019-01-25T23:02:13.557Z,20.13
2019-01-25T23:05:02.914Z,21.97
2019-01-25T23:07:32.353Z,23.97
2019-01-25T23:10:11.617Z,20.10
2019-01-25T23:12:40.454Z,24.60
2019-01-25T23:15:10.696Z,21.27
2019-01-25T23:17:39.451Z,23.87
2019-01-25T23:22:38.731Z,18.93
2019-01-25T23:25:08.097Z,19.00
2019-01-25T23:27:36.862Z,20.10
2019-01-25T23:30:08.122Z,17.47
2019-01-25T23:32:36.950Z,21.60
2019-01-25T23:35:05.934Z,20.13
2019-01-25T23:37:34.677Z,18.70
2019-01-25T23:40:04.476Z,23.50
2019-01-25T23:42:33.250Z,22.13
2019-01-25T23:45:02.318Z,23.60
2019-01-25T23:47:31.086Z,23.73
2019-01-25T23:49:59.861Z,23.10
2019-01-25T23:52:28.663Z,26.77
2019-01-25T23:54:57.417Z,25.50
2019-01-25T23:57:26.206Z,25.07
2019-01-25T23:59:55.054Z,25.27
